Washington Court House, OH (43160)

10:06 AM EST on December 29, 2014 (GMT -0500)
OHDOT | Change Station
CLOSE
Current Station
Personal Weather Station
Location: Washington Court House, OH
Elevation: 1004 ft
Nearby Weather Stations

Elev 1004 ft 39.53 °N, 83.48 °W | Updated 1 day ago

Partly Cloudy
Partly Cloudy
34 °F
Feels Like 28 °F
N
7
Wind Variable Wind from NNE
Gusts 10 mph

Today
High -- | Low -- °F
--% Chance of Precip.
Yesterday
High -- | Low -- °F
Precip. -- in
7:53 AM 5:18 PM
First Quarter, 59% visible
Pressure 30.34 in
Visibility 7.0 miles
Clouds Clear
Windchill 28 °F
Dew Point 27 °F
Humidity 74%
Rainfall -999.00 in
Snow Depth Not available.
UV 1 out of 12
Pollen .10 out of 12
Air Quality Not available.
Flu Activity Not available.
METAR KILN 291454Z AUTO 03009KT 7SM CLR M02/M05 A3026 RMK AO2 SLP274 T10171050 53012

More Conditions Fewer Conditions

Pressure 30.34 in
Visibility 7.0 miles
Clouds Clear
Windchill 28 °F
Dew Point 27 °F
Humidity 74%
Rainfall -999.00 in
Snow Depth Not available.
UV 1 out of 12
Pollen .10 out of 12
Air Quality Not available.
Flu Activity Not available.
METAR KILN 291454Z AUTO 03009KT 7SM CLR M02/M05 A3026 RMK AO2 SLP274 T10171050 53012

More Conditions Fewer Conditions

10-Day Weather Forecast

Almanac

Astronomy

Dec. 29, 2014 Rise Set
Actual Time
Civil Twilight
Nautical Twilight
Astronomical Twilight
Moon
Length of Visible Light
Length of Day
Tomorrow will be .
, % of the Moon is Illuminated

Today's Extremes

State Highs State Lows

Community

WunderPhotos

Upload Photos

1,781,598 photos uploaded!

WunderBlogs® & News

Nearby

Air Quality

  Air Quality AQ Index Pollutant
Not available.

Snow Depth

Station Depth Elevation

Earthquake Activity

City Distance Mag. Time & Date
Minimum magnitude displayed is 2.5.

Coastal Water Temperatures

Place Temperature

Nearby Weather Stations